Time;durP1;ratioP1;P1;durP2;ratioP2;P2;SDS_P1;SDS_P2;PMS_P1;PMS_P2;Temp;Humidity;BMP_temperature;BMP_pressure;BME280_temperature;BME280_humidity;BME280_pressure;Samples;Min_cycle;Max_cycle;Signal;HPM_P1;HPM_P2
2023/03/19 00:00:33;;;;;;;;;;;;;;;26.81;41.18;100981.72;5049182;28;66093;-36
2023/03/19 00:03:04;;;;;;;;;;;;;;;26.80;41.21;100980.03;5062252;27;68932;-37
2023/03/19 00:05:35;;;;;;;;;;;;;;;26.82;41.30;100977.97;5051955;28;66114;-36
2023/03/19 00:08:06;;;;;;;;;;;;;;;26.81;41.20;100992.47;5044099;28;70604;-37
2023/03/19 00:10:38;;;;;;;;;;;;;;;26.82;41.23;100994.97;5081094;27;66204;-39
2023/03/19 00:13:09;;;;;;;;;;;;;;;26.84;41.38;100997.47;5045318;28;69194;-39
2023/03/19 00:15:39;;;;;;;;;;;;;;;26.86;41.45;100995.44;5051699;28;65314;-36
2023/03/19 00:18:10;;;;;;;;;;;;;;;26.86;41.23;100990.06;5055608;28;69875;-37
2023/03/19 00:20:40;;;;;;;;;;;;;;;26.85;41.34;100999.97;5052379;27;66417;-36
2023/03/19 00:23:11;;;;;;;;;;;;;;;26.87;41.55;101013.25;5054709;28;70149;-36
2023/03/19 00:25:41;;;;;;;;;;;;;;;26.89;41.43;101016.59;5045190;28;65733;-36
2023/03/19 00:28:11;;;;;;;;;;;;;;;26.88;41.72;101014.91;5047328;28;70174;-35
2023/03/19 00:30:43;;;;;;;;;;;;;;;26.90;41.23;101023.63;5047643;27;67009;-36
2023/03/19 00:33:13;;;;;;;;;;;;;;;26.91;41.37;101019.91;5049241;28;70369;-37
2023/03/19 00:35:43;;;;;;;;;;;;;;;26.89;41.46;101021.97;5042922;28;66748;-37
2023/03/19 00:38:13;;;;;;;;;;;;;;;26.92;41.30;101021.59;5052719;27;69715;-38
2023/03/19 00:40:44;;;;;;;;;;;;;;;26.93;41.32;101023.25;5051780;28;66323;-36
2023/03/19 00:43:14;;;;;;;;;;;;;;;26.95;41.46;101021.19;5045511;28;70154;-39
2023/03/19 00:45:44;;;;;;;;;;;;;;;27.08;42.06;101032.13;5047132;28;66672;-38
2023/03/19 00:48:14;;;;;;;;;;;;;;;27.25;43.92;101031.91;5082624;27;70731;-40
2023/03/19 00:50:45;;;;;;;;;;;;;;;27.47;50.74;101041.66;5062066;27;65560;-36
2023/03/19 00:53:15;;;;;;;;;;;;;;;27.66;58.99;101039.31;5050252;27;69504;-37
2023/03/19 00:55:45;;;;;;;;;;;;;;;27.79;61.89;101058.28;5049389;28;66082;-36
2023/03/19 00:58:16;;;;;;;;;;;;;;;27.92;61.62;101063.81;5049396;28;70107;-36
2023/03/19 01:00:47;;;;;;;;;;;;;;;28.05;60.73;101071.16;5052798;27;65381;-38
2023/03/19 01:03:18;;;;;;;;;;;;;;;28.16;60.30;101080.56;5068558;27;69519;-38
2023/03/19 01:05:48;;;;;;;;;;;;;;;28.26;60.65;101081.06;5049205;27;66524;-39
2023/03/19 01:08:17;;;;;;;;;;;;;;;28.32;60.90;101080.25;5046038;28;69331;-39
2023/03/19 01:10:47;;;;;;;;;;;;;;;28.40;60.89;101082.81;5050836;28;65504;-38
2023/03/19 01:13:18;;;;;;;;;;;;;;;28.47;60.59;101089.13;5081944;27;69408;-38
2023/03/19 01:15:50;;;;;;;;;;;;;;;28.52;60.38;101099.28;5046535;27;67118;-38
2023/03/19 01:18:22;;;;;;;;;;;;;;;28.56;59.32;101102.44;5053853;28;70296;-39
2023/03/19 01:20:52;;;;;;;;;;;;;;;28.57;57.64;101112.19;5050865;28;65798;-39
2023/03/19 01:23:23;;;;;;;;;;;;;;;28.61;56.99;101108.06;5078641;27;69996;-39
2023/03/19 01:25:56;;;;;;;;;;;;;;;28.65;56.64;101114.75;5044721;28;65925;-39
2023/03/19 01:28:27;;;;;;;;;;;;;;;28.71;56.62;101113.94;5035515;28;69649;-40
2023/03/19 01:30:59;;;;;;;;;;;;;;;28.75;56.92;101112.47;5040262;28;66580;-39
2023/03/19 01:33:55;;;;;;;;;;;;;;;28.81;56.68;101113.59;5041393;28;69645;-42
2023/03/19 01:36:44;;;;;;;;;;;;;;;28.86;56.85;101128.16;5057185;28;66376;-39
2023/03/19 01:39:17;;;;;;;;;;;;;;;28.91;56.67;101125.66;5071773;27;70021;-41
2023/03/19 01:41:47;;;;;;;;;;;;;;;28.94;57.25;101122.53;5046606;28;65446;-39
2023/03/19 01:44:37;;;;;;;;;;;;;;;28.99;57.13;101121.13;5052670;28;69067;-39
2023/03/19 01:47:38;;;;;;;;;;;;;;;29.02;57.42;101123.41;5075807;27;66090;-39
2023/03/19 01:50:24;;;;;;;;;;;;;;;29.06;58.01;101130.94;5077470;27;70468;-40
2023/03/19 01:53:15;;;;;;;;;;;;;;;29.12;57.29;101132.00;5042602;28;66723;-39
2023/03/19 01:56:06;;;;;;;;;;;;;;;28.89;56.85;101092.63;5038917;27;70900;-40
2023/03/19 01:59:02;;;;;;;;;;;;;;;29.20;57.73;101139.94;5046033;27;65567;-40
2023/03/19 02:02:03;;;;;;;;;;;;;;;29.24;57.67;101141.19;5051368;28;70415;-39
2023/03/19 02:04:35;;;;;;;;;;;;;;;29.29;57.13;101143.28;5043026;27;66324;-40
2023/03/19 02:07:07;;;;;;;;;;;;;;;29.33;57.31;101149.94;5059058;27;70503;-40
2023/03/19 02:09:39;;;;;;;;;;;;;;;29.36;57.39;101147.69;5044597;28;66159;-40
2023/03/19 02:12:09;;;;;;;;;;;;;;;29.39;57.20;101144.56;5039431;28;70172;-43
2023/03/19 02:14:39;;;;;;;;;;;;;;;29.45;57.06;101142.06;5045156;28;65974;-39
2023/03/19 02:17:10;;;;;;;;;;;;;;;29.47;57.20;101145.41;5042210;28;70121;-40
2023/03/19 02:19:45;;;;;;;;;;;;;;;29.50;57.07;101150.41;5057701;27;66153;-39
2023/03/19 02:22:18;;;;;;;;;;;;;;;29.53;56.62;101142.72;5045307;28;70294;-42
2023/03/19 02:24:58;;;;;;;;;;;;;;;29.56;56.79;101138.75;5042585;28;65658;-42
2023/03/19 02:27:28;;;;;;;;;;;;;;;29.60;56.37;101140.03;5060515;27;68560;-41
2023/03/19 02:29:59;;;;;;;;;;;;;;;29.62;56.81;101138.78;5060307;27;67122;-40
2023/03/19 02:32:30;;;;;;;;;;;;;;;29.66;56.73;101138.41;5057375;27;70522;-44
2023/03/19 02:35:00;;;;;;;;;;;;;;;29.69;56.58;101133.41;5042558;28;65835;-40
2023/03/19 02:37:31;;;;;;;;;;;;;;;29.71;56.48;101136.75;5042440;28;68573;-40
2023/03/19 02:40:07;;;;;;;;;;;;;;;29.75;55.85;101135.28;5043294;28;66070;-39
2023/03/19 02:42:38;;;;;;;;;;;;;;;29.77;55.81;101130.50;5076656;27;69612;-39
2023/03/19 02:45:09;;;;;;;;;;;;;;;29.80;55.63;101124.69;5044472;27;65879;-43
2023/03/19 02:47:39;;;;;;;;;;;;;;;29.82;55.83;101119.91;5043284;28;70872;-39
2023/03/19 02:50:10;;;;;;;;;;;;;;;29.88;55.27;101120.94;5043281;27;65659;-39
2023/03/19 02:52:40;;;;;;;;;;;;;;;29.90;55.50;101124.28;5047930;28;69898;-38
2023/03/19 02:55:10;;;;;;;;;;;;;;;29.95;55.77;101120.94;5051439;28;66645;-42
2023/03/19 02:57:40;;;;;;;;;;;;;;;29.98;55.08;101115.13;5053753;27;70088;-38
2023/03/19 03:00:11;;;;;;;;;;;;;;;30.00;55.26;101110.31;5053942;27;66558;-39
2023/03/19 03:02:41;;;;;;;;;;;;;;;30.03;55.26;101102.66;5058009;28;70763;-45
2023/03/19 03:05:12;;;;;;;;;;;;;;;30.07;55.52;101113.88;5042202;28;66650;-42
2023/03/19 03:07:43;;;;;;;;;;;;;;;30.10;55.80;101097.22;5043204;28;68857;-41
2023/03/19 03:10:15;;;;;;;;;;;;;;;30.14;55.94;101090.34;5047477;28;66561;-40
2023/03/19 03:12:45;;;;;;;;;;;;;;;30.17;55.65;101084.53;5051313;28;70249;-42
2023/03/19 03:15:15;;;;;;;;;;;;;;;30.21;56.02;101083.03;5050144;28;66570;-40
2023/03/19 03:17:45;;;;;;;;;;;;;;;30.24;55.82;101077.25;5054200;28;70185;-42
2023/03/19 03:20:16;;;;;;;;;;;;;;;30.28;55.63;101073.09;5060147;27;65886;-40
2023/03/19 03:22:47;;;;;;;;;;;;;;;30.31;55.89;101071.81;5041855;28;70267;-39
2023/03/19 03:25:17;;;;;;;;;;;;;;;30.36;56.40;101063.06;5049443;28;66034;-40
2023/03/19 03:27:48;;;;;;;;;;;;;;;30.43;56.44;101067.41;5048584;28;70249;-41
2023/03/19 03:30:18;;;;;;;;;;;;;;;30.51;56.19;101066.34;5040832;28;66535;-41
2023/03/19 03:32:48;;;;;;;;;;;;;;;30.59;56.25;101062.56;5049621;27;70265;-42
2023/03/19 03:35:21;;;;;;;;;;;;;;;30.61;55.77;101055.88;5053076;28;65229;-41
2023/03/19 03:37:51;;;;;;;;;;;;;;;30.65;55.87;101049.00;5045426;28;70679;-38
2023/03/19 03:40:22;;;;;;;;;;;;;;;30.66;55.67;101047.97;5052137;28;65714;-39
2023/03/19 03:42:53;;;;;;;;;;;;;;;30.69;55.97;101044.00;5049923;28;70401;-41
2023/03/19 03:45:24;;;;;;;;;;;;;;;30.72;55.63;101040.84;5067998;27;66784;-39
2023/03/19 03:47:55;;;;;;;;;;;;;;;30.76;55.28;101035.81;5062745;27;69877;-40
2023/03/19 03:50:25;;;;;;;;;;;;;;;30.82;54.87;101032.31;5044678;28;66872;-40
2023/03/19 03:53:00;;;;;;;;;;;;;;;30.86;54.66;101022.69;5049649;28;69586;-40
2023/03/19 03:55:31;;;;;;;;;;;;;;;30.89;54.87;101014.13;5049241;28;66336;-39
2023/03/19 03:58:02;;;;;;;;;;;;;;;30.86;55.24;101007.25;5039042;28;70375;-41
2023/03/19 04:00:32;;;;;;;;;;;;;;;30.90;54.07;100999.56;5051788;28;65809;-40
2023/03/19 04:03:04;;;;;;;;;;;;;;;30.89;54.35;101000.59;5047370;28;69871;-39
2023/03/19 04:05:36;;;;;;;;;;;;;;;30.92;54.42;100994.72;5059400;28;66645;-40
2023/03/19 04:08:07;;;;;;;;;;;;;;;30.97;54.71;100994.09;5076549;27;70682;-42
2023/03/19 04:10:41;;;;;;;;;;;;;;;31.02;55.33;100986.97;5047839;28;66702;-38
2023/03/19 04:13:12;;;;;;;;;;;;;;;31.09;54.93;100981.47;5041107;28;70195;-39
2023/03/19 04:15:43;;;;;;;;;;;;;;;31.20;53.45;100979.94;5050519;28;66072;-39
2023/03/19 04:18:14;;;;;;;;;;;;;;;31.25;53.87;100977.41;5073473;27;69983;-37
2023/03/19 04:20:45;;;;;;;;;;;;;;;31.28;53.74;100971.53;5053952;28;66860;-42
2023/03/19 04:23:16;;;;;;;;;;;;;;;31.34;53.37;100962.53;5054644;28;70301;-37
2023/03/19 04:25:47;;;;;;;;;;;;;;;31.43;52.77;100969.38;5039204;28;66364;-38
2023/03/19 04:28:17;;;;;;;;;;;;;;;31.42;54.55;100959.56;5044156;28;70501;-43
2023/03/19 04:30:47;;;;;;;;;;;;;;;31.35;55.37;100956.06;5048762;28;65917;-41
2023/03/19 04:33:20;;;;;;;;;;;;;;;31.25;55.56;100937.59;5073390;27;70920;-41
2023/03/19 04:35:50;;;;;;;;;;;;;;;31.21;55.03;100930.16;5044703;28;66715;-40
2023/03/19 04:38:20;;;;;;;;;;;;;;;31.15;55.33;100938.09;5050729;28;70527;-40
2023/03/19 04:40:52;;;;;;;;;;;;;;;31.14;54.83;100931.00;5074005;27;66009;-41
2023/03/19 04:43:23;;;;;;;;;;;;;;;31.11;54.95;100926.03;5066321;27;69948;-39
2023/03/19 04:45:53;;;;;;;;;;;;;;;31.10;54.57;100921.66;5041629;28;66589;-40
2023/03/19 04:48:23;;;;;;;;;;;;;;;31.11;54.33;100920.59;5053418;28;71023;-39
2023/03/19 04:50:55;;;;;;;;;;;;;;;31.07;54.90;100913.16;5087580;27;66173;-39
2023/03/19 04:53:27;;;;;;;;;;;;;;;30.90;52.14;100904.75;5054641;27;70351;-41
2023/03/19 04:55:57;;;;;;;;;;;;;;;30.75;51.31;100899.59;5051630;27;66648;-38
2023/03/19 04:58:27;;;;;;;;;;;;;;;30.64;50.20;100901.13;5053985;27;69699;-40
2023/03/19 05:01:02;;;;;;;;;;;;;;;30.50;49.73;100894.13;5052384;28;66157;-42
2023/03/19 05:03:59;;;;;;;;;;;;;;;30.41;48.64;100881.91;5052630;28;70078;-40
2023/03/19 05:06:32;;;;;;;;;;;;;;;30.28;48.25;100880.97;5034949;28;65671;-41
2023/03/19 05:09:02;;;;;;;;;;;;;;;30.22;47.55;100875.56;5043416;28;70285;-42
2023/03/19 05:11:34;;;;;;;;;;;;;;;30.12;46.56;100867.06;5053304;28;66666;-38
2023/03/19 05:14:08;;;;;;;;;;;;;;;30.08;45.94;100860.41;5042473;28;70528;-41
2023/03/19 05:16:58;;;;;;;;;;;;;;;30.01;45.79;100860.47;5044145;28;65517;-39
2023/03/19 05:19:38;;;;;;;;;;;;;;;29.96;45.65;100857.56;5075539;27;70603;-38
2023/03/19 05:22:09;;;;;;;;;;;;;;;29.46;46.37;100776.19;5046664;28;66672;-41
2023/03/19 05:24:41;;;;;;;;;;;;;;;29.46;46.37;100760.81;5061189;27;69234;-39
2023/03/19 05:27:12;;;;;;;;;;;;;;;29.89;45.48;100835.13;5060846;27;66786;-40
2023/03/19 05:30:03;;;;;;;;;;;;;;;29.87;45.79;100818.28;5044476;28;69038;-45
2023/03/19 05:32:39;;;;;;;;;;;;;;;29.84;45.38;100819.56;5052060;27;66546;-40
2023/03/19 05:35:16;;;;;;;;;;;;;;;29.79;44.64;100808.53;5045131;27;70690;-40
2023/03/19 05:37:46;;;;;;;;;;;;;;;29.76;44.50;100798.97;5090484;27;66398;-42
2023/03/19 05:40:17;;;;;;;;;;;;;;;29.73;44.13;100794.00;5053342;27;70072;-44
2023/03/19 05:42:49;;;;;;;;;;;;;;;29.73;43.69;100788.59;5045670;28;66042;-41
2023/03/19 05:45:23;;;;;;;;;;;;;;;29.70;43.31;100783.63;5047107;28;70272;-41
2023/03/19 05:47:56;;;;;;;;;;;;;;;29.81;43.72;100779.41;5058076;28;65733;-42
2023/03/19 05:50:27;;;;;;;;;;;;;;;29.93;43.22;100777.69;5066554;27;70701;-40
2023/03/19 05:53:19;;;;;;;;;;;;;;;30.02;42.96;100770.97;5053720;28;65962;-40
2023/03/19 05:56:07;;;;;;;;;;;;;;;30.10;42.09;100769.88;5041644;28;69836;-40
2023/03/19 05:58:51;;;;;;;;;;;;;;;30.10;41.53;100756.34;5065643;28;66767;-43
2023/03/19 06:01:26;;;;;;;;;;;;;;;30.12;41.96;100754.28;5053721;27;70541;-43
2023/03/19 06:03:56;;;;;;;;;;;;;;;30.15;41.27;100748.44;5054883;28;65669;-40
2023/03/19 06:06:27;;;;;;;;;;;;;;;30.17;40.92;100746.34;5087545;27;71377;-39
2023/03/19 06:08:57;;;;;;;;;;;;;;;30.20;40.74;100742.34;5053619;28;65923;-40
2023/03/19 06:11:38;;;;;;;;;;;;;;;30.17;40.43;100738.22;5070514;27;70217;-39
2023/03/19 06:14:26;;;;;;;;;;;;;;;30.20;40.60;100726.97;5054305;28;66298;-39
2023/03/19 06:17:26;;;;;;;;;;;;;;;30.18;40.59;100718.22;5080215;27;69951;-39
2023/03/19 06:20:01;;;;;;;;;;;;;;;30.22;40.21;100727.56;5059373;28;65607;-39
2023/03/19 06:22:31;;;;;;;;;;;;;;;30.24;40.33;100720.06;5045337;28;69787;-42
2023/03/19 06:25:01;;;;;;;;;;;;;;;30.25;40.38;100710.91;5052661;28;66699;-40
2023/03/19 06:27:35;;;;;;;;;;;;;;;30.24;40.17;100709.25;5050522;28;69880;-43
2023/03/19 06:30:18;;;;;;;;;;;;;;;30.26;40.17;100690.94;5081777;27;65931;-42
2023/03/19 06:32:49;;;;;;;;;;;;;;;30.28;39.92;100678.00;5049938;28;70647;-41
2023/03/19 06:35:21;;;;;;;;;;;;;;;30.32;39.75;100670.28;5051149;28;67001;-40
2023/03/19 06:37:52;;;;;;;;;;;;;;;30.32;40.08;100672.16;5050000;28;70610;-41
2023/03/19 06:40:23;;;;;;;;;;;;;;;30.36;39.56;100673.34;5056228;28;66292;-43
2023/03/19 06:42:53;;;;;;;;;;;;;;;30.42;39.63;100669.75;5060470;28;69240;-40
2023/03/19 06:45:24;;;;;;;;;;;;;;;30.43;39.66;100656.00;5052301;27;66910;-40
2023/03/19 06:47:54;;;;;;;;;;;;;;;30.47;39.63;100650.97;5054467;28;70317;-42
2023/03/19 06:50:24;;;;;;;;;;;;;;;30.44;39.51;100654.13;5048713;27;66857;-43
2023/03/19 06:52:54;;;;;;;;;;;;;;;30.49;38.98;100638.88;5051985;28;70301;-42
2023/03/19 06:55:25;;;;;;;;;;;;;;;30.53;39.50;100647.38;5051245;28;65767;-40
2023/03/19 06:57:55;;;;;;;;;;;;;;;30.60;39.06;100636.50;5045345;28;69417;-42
2023/03/19 07:00:25;;;;;;;;;;;;;;;30.60;39.04;100631.91;5047997;28;67513;-42
2023/03/19 07:02:55;;;;;;;;;;;;;;;30.61;39.37;100627.31;5046706;28;70361;-43
2023/03/19 07:05:26;;;;;;;;;;;;;;;30.63;38.74;100628.75;5040797;27;66972;-43
2023/03/19 07:07:56;;;;;;;;;;;;;;;30.66;38.82;100625.59;5051445;28;69471;-42
2023/03/19 07:10:26;;;;;;;;;;;;;;;30.70;39.09;100621.38;5052139;28;66620;-41
2023/03/19 07:12:56;;;;;;;;;;;;;;;30.75;38.64;100617.16;5047814;27;69804;-42
2023/03/19 07:15:27;;;;;;;;;;;;;;;30.80;38.82;100617.34;5053821;28;65553;-42
2023/03/19 07:17:57;;;;;;;;;;;;;;;30.82;39.01;100612.53;5042534;28;70090;-44
2023/03/19 07:20:28;;;;;;;;;;;;;;;30.83;38.49;100608.78;5042810;28;66063;-39
2023/03/19 07:22:58;;;;;;;;;;;;;;;30.81;38.87;100600.03;5049345;27;70410;-39
2023/03/19 07:25:29;;;;;;;;;;;;;;;30.96;40.03;100592.38;5078119;27;66627;-43
2023/03/19 07:27:59;;;;;;;;;;;;;;;31.00;39.97;100598.97;5048537;27;69306;-39
2023/03/19 07:30:30;;;;;;;;;;;;;;;31.07;40.03;100593.47;5051181;28;66863;-39
2023/03/19 07:33:01;;;;;;;;;;;;;;;31.20;39.52;100581.63;5048935;28;71089;-38
2023/03/19 07:35:31;;;;;;;;;;;;;;;31.41;41.17;100578.44;5043571;27;65846;-41
2023/03/19 07:38:01;;;;;;;;;;;;;;;31.68;42.01;100568.00;5042903;27;70223;-41
2023/03/19 07:40:32;;;;;;;;;;;;;;;31.92;43.32;100563.47;5041473;27;66619;-41
2023/03/19 07:43:03;;;;;;;;;;;;;;;32.09;44.04;100563.56;5044286;28;69728;-40
2023/03/19 07:45:33;;;;;;;;;;;;;;;32.25;43.56;100572.91;5051959;28;67719;-44
2023/03/19 07:48:04;;;;;;;;;;;;;;;32.36;43.25;100569.34;5039231;28;69779;-44
2023/03/19 07:50:34;;;;;;;;;;;;;;;32.47;43.16;100565.81;5040492;28;65675;-40
2023/03/19 07:53:05;;;;;;;;;;;;;;;32.61;43.15;100562.84;5049697;27;70446;-41
2023/03/19 07:55:36;;;;;;;;;;;;;;;32.71;43.06;100555.75;5047714;28;65344;-43
2023/03/19 07:58:07;;;;;;;;;;;;;;;32.79;42.88;100549.13;5044857;28;70101;-43
2023/03/19 08:00:37;;;;;;;;;;;;;;;32.91;42.93;100543.63;5050397;28;66471;-41
2023/03/19 08:03:07;;;;;;;;;;;;;;;33.02;42.81;100544.69;5053759;28;70472;-40
2023/03/19 08:05:38;;;;;;;;;;;;;;;33.10;42.73;100542.41;5054028;27;66869;-42
2023/03/19 08:08:08;;;;;;;;;;;;;;;33.18;42.69;100538.44;5048756;28;70601;-40
2023/03/19 08:10:38;;;;;;;;;;;;;;;33.29;42.61;100539.44;5040626;28;65895;-40
2023/03/19 08:13:09;;;;;;;;;;;;;;;33.37;42.50;100537.16;5053462;27;71501;-44
2023/03/19 08:15:40;;;;;;;;;;;;;;;33.47;42.61;100547.38;5040843;28;65666;-40
2023/03/19 08:18:10;;;;;;;;;;;;;;;33.55;42.44;100543.47;5056688;27;70673;-41
2023/03/19 08:20:40;;;;;;;;;;;;;;;33.64;42.38;100531.09;5044791;28;66362;-42
2023/03/19 08:23:11;;;;;;;;;;;;;;;33.49;42.36;100498.19;5047186;28;70410;-44
2023/03/19 08:25:41;;;;;;;;;;;;;;;33.78;42.07;100524.25;5050871;28;65442;-41
2023/03/19 08:28:11;;;;;;;;;;;;;;;33.89;42.43;100527.13;5040320;28;69141;-40
2023/03/19 08:30:41;;;;;;;;;;;;;;;33.96;42.37;100534.06;5037040;28;66220;-41
2023/03/19 08:33:11;;;;;;;;;;;;;;;34.03;42.20;100533.88;5039351;28;70446;-43
2023/03/19 08:35:42;;;;;;;;;;;;;;;34.12;42.09;100532.38;5051155;27;65760;-40
2023/03/19 08:38:12;;;;;;;;;;;;;;;33.97;42.01;100505.75;5046145;27;69707;-42
2023/03/19 08:40:42;;;;;;;;;;;;;;;34.29;41.84;100536.97;5072695;27;65487;-39
2023/03/19 08:43:12;;;;;;;;;;;;;;;34.36;41.76;100534.91;5049293;28;69410;-40
2023/03/19 08:45:42;;;;;;;;;;;;;;;34.43;42.14;100538.25;5044917;27;66881;-41
2023/03/19 08:48:12;;;;;;;;;;;;;;;34.51;41.67;100545.16;5047022;28;69056;-43
2023/03/19 08:50:42;;;;;;;;;;;;;;;34.58;41.68;100541.22;5046009;28;66199;-42
2023/03/19 08:53:13;;;;;;;;;;;;;;;34.62;41.58;100536.88;5047323;28;70357;-41
2023/03/19 08:55:43;;;;;;;;;;;;;;;34.70;41.74;100538.34;5044290;27;66282;-45
2023/03/19 08:58:13;;;;;;;;;;;;;;;34.78;41.59;100534.34;5046832;27;70590;-45
2023/03/19 09:00:43;;;;;;;;;;;;;;;34.63;41.75;100494.97;5047997;28;67113;-44
2023/03/19 09:03:13;;;;;;;;;;;;;;;34.90;42.01;100526.84;5047720;28;69879;-41
2023/03/19 09:05:44;;;;;;;;;;;;;;;34.77;42.01;100489.09;5049168;28;64877;-41
2023/03/19 09:08:14;;;;;;;;;;;;;;;35.02;42.04;100540.31;5046911;27;69146;-43
2023/03/19 09:10:45;;;;;;;;;;;;;;;35.08;41.62;100526.53;5045252;27;65539;-41
2023/03/19 09:13:17;;;;;;;;;;;;;;;35.16;41.88;100529.84;5047750;28;69406;-41
2023/03/19 09:15:49;;;;;;;;;;;;;;;35.20;41.36;100536.44;5046893;27;65388;-41
2023/03/19 09:18:19;;;;;;;;;;;;;;;35.26;41.61;100540.88;5049619;27;70067;-42
2023/03/19 09:20:51;;;;;;;;;;;;;;;35.30;41.59;100536.53;5049536;27;67989;-40
2023/03/19 09:23:21;;;;;;;;;;;;;;;35.36;41.25;100540.97;5045318;27;68763;-43
2023/03/19 09:25:51;;;;;;;;;;;;;;;35.39;41.32;100540.44;5047133;28;66384;-42
2023/03/19 09:28:21;;;;;;;;;;;;;;;35.42;41.69;100539.94;5046310;28;67989;-43
2023/03/19 09:30:52;;;;;;;;;;;;;;;35.45;41.72;100544.84;5047924;28;65896;-40
2023/03/19 09:33:22;;;;;;;;;;;;;;;35.47;41.65;100545.44;5046692;28;69186;-43
2023/03/19 09:35:53;;;;;;;;;;;;;;;35.50;41.77;100542.19;5045925;28;66393;-43
2023/03/19 09:38:23;;;;;;;;;;;;;;;35.54;41.76;100543.28;5043688;28;68896;-43
2023/03/19 09:41:14;;;;;;;;;;;;;;;35.55;41.14;100542.22;5045803;28;65753;-42
2023/03/19 09:43:48;;;;;;;;;;;;;;;35.58;41.65;100539.00;5051398;28;70318;-41
2023/03/19 09:46:22;;;;;;;;;;;;;;;35.60;41.60;100540.63;5049639;27;66696;-44
2023/03/19 09:48:52;;;;;;;;;;;;;;;35.61;41.60;100534.94;5045141;28;70031;-41
2023/03/19 09:51:29;;;;;;;;;;;;;;;35.63;41.64;100542.84;5048763;28;66221;-40
2023/03/19 09:54:02;;;;;;;;;;;;;;;35.68;41.64;100542.88;5049176;27;71442;-40
2023/03/19 09:56:33;;;;;;;;;;;;;;;35.69;41.49;100544.50;5045617;28;66946;-41
2023/03/19 09:59:03;;;;;;;;;;;;;;;35.73;41.68;100548.38;5043379;28;70122;-43
2023/03/19 10:01:36;;;;;;;;;;;;;;;35.75;41.65;100543.50;5053901;27;66485;-44
2023/03/19 10:04:12;;;;;;;;;;;;;;;35.22;43.01;100545.19;5053251;27;70781;-43
2023/03/19 10:06:43;;;;;;;;;;;;;;;34.90;44.56;100556.81;5042906;28;66617;-42
2023/03/19 10:09:21;;;;;;;;;;;;;;;34.76;44.81;100558.28;5050263;28;69400;-41
2023/03/19 10:12:10;;;;;;;;;;;;;;;34.65;45.40;100555.44;5044124;28;66719;-43
2023/03/19 10:14:50;;;;;;;;;;;;;;;34.54;46.08;100567.25;5056633;27;70364;-44
2023/03/19 10:17:47;;;;;;;;;;;;;;;34.47;46.58;100566.63;5053256;28;67014;-42
2023/03/19 10:20:17;;;;;;;;;;;;;;;34.43;47.10;100566.28;5046693;27;70000;-41
2023/03/19 10:22:50;;;;;;;;;;;;;;;34.39;47.46;100569.78;5047187;28;66662;-42
2023/03/19 10:25:23;;;;;;;;;;;;;;;34.39;48.48;100577.97;5042177;28;70026;-43
2023/03/19 10:28:00;;;;;;;;;;;;;;;34.36;49.00;100587.47;5051320;28;65441;-43
2023/03/19 10:30:32;;;;;;;;;;;;;;;34.29;48.96;100581.34;5044221;28;70557;-46
2023/03/19 10:33:12;;;;;;;;;;;;;;;34.26;49.39;100587.31;5045238;27;65064;-43
2023/03/19 10:35:44;;;;;;;;;;;;;;;34.22;49.73;100594.34;5042985;28;69180;-46
2023/03/19 10:38:22;;;;;;;;;;;;;;;34.17;50.12;100603.25;5040023;28;65615;-41
2023/03/19 10:41:01;;;;;;;;;;;;;;;34.18;50.02;100610.31;5047947;28;70067;-41
2023/03/19 10:43:33;;;;;;;;;;;;;;;34.31;49.32;100611.06;5039825;28;66146;-41
2023/03/19 10:46:03;;;;;;;;;;;;;;;34.58;48.52;100622.91;5046751;28;70068;-41
2023/03/19 10:48:42;;;;;;;;;;;;;;;34.77;47.57;100620.72;5047209;28;66869;-41
2023/03/19 10:51:17;;;;;;;;;;;;;;;34.91;47.04;100621.16;5051103;28;69801;-43
2023/03/19 10:53:47;;;;;;;;;;;;;;;34.98;46.68;100616.31;5044651;28;67001;-42
2023/03/19 10:56:25;;;;;;;;;;;;;;;35.03;46.55;100616.38;5056881;28;70118;-41
2023/03/19 10:58:57;;;;;;;;;;;;;;;35.07;46.21;100617.53;5079420;27;65998;-41
2023/03/19 11:01:30;;;;;;;;;;;;;;;35.08;46.41;100624.66;5056610;28;69078;-43
2023/03/19 11:04:02;;;;;;;;;;;;;;;35.08;45.71;100619.22;5057782;28;67513;-44
2023/03/19 11:06:36;;;;;;;;;;;;;;;35.09;45.71;100628.22;5054841;27;70249;-43
2023/03/19 11:09:07;;;;;;;;;;;;;;;35.12;44.86;100628.50;5049471;28;67048;-46
2023/03/19 11:11:45;;;;;;;;;;;;;;;35.09;45.27;100633.66;5053082;27;70453;-42
2023/03/19 11:14:24;;;;;;;;;;;;;;;35.07;45.17;100633.91;5054628;28;66448;-44
2023/03/19 11:16:55;;;;;;;;;;;;;;;35.06;45.20;100634.16;5080842;27;70411;-46
2023/03/19 11:19:31;;;;;;;;;;;;;;;35.05;45.10;100640.66;5040342;28;67690;-43
2023/03/19 11:22:08;;;;;;;;;;;;;;;34.74;45.00;100648.44;5036920;28;70640;-41
2023/03/19 11:24:39;;;;;;;;;;;;;;;34.35;46.05;100653.03;5048566;28;66384;-43
2023/03/19 11:27:10;;;;;;;;;;;;;;;34.12;46.68;100648.63;5043807;28;70210;-41
2023/03/19 11:29:41;;;;;;;;;;;;;;;33.96;47.50;100653.78;5042616;28;67620;-41
2023/03/19 11:32:44;;;;;;;;;;;;;;;33.75;47.92;100663.50;5065896;27;69318;-44
2023/03/19 11:35:20;;;;;;;;;;;;;;;33.56;48.29;100667.50;5040668;28;66296;-44
2023/03/19 11:37:59;;;;;;;;;;;;;;;33.41;48.84;100670.72;5048924;28;69968;-41
2023/03/19 11:40:56;;;;;;;;;;;;;;;33.27;49.90;100667.47;5055364;27;66860;-39
2023/03/19 11:43:45;;;;;;;;;;;;;;;33.13;50.44;100668.81;5049587;28;69848;-41
2023/03/19 11:46:17;;;;;;;;;;;;;;;33.04;52.05;100681.13;5051958;28;65202;-44
2023/03/19 11:48:49;;;;;;;;;;;;;;;32.88;52.72;100680.78;5035298;28;70656;-44
2023/03/19 11:51:19;;;;;;;;;;;;;;;32.86;53.14;100687.50;5045082;28;65606;-42
2023/03/19 11:53:59;;;;;;;;;;;;;;;32.82;52.91;100692.59;5049456;27;70303;-40
2023/03/19 11:56:31;;;;;;;;;;;;;;;32.83;53.12;100688.81;5045624;28;66743;-39
2023/03/19 11:59:04;;;;;;;;;;;;;;;32.80;53.16;100694.72;5050152;28;68993;-40
2023/03/19 12:01:55;;;;;;;;;;;;;;;32.82;53.52;100697.19;5046297;28;67175;-41
2023/03/19 12:04:31;;;;;;;;;;;;;;;32.83;53.32;100698.84;5045644;28;70403;-39
2023/03/19 12:07:24;;;;;;;;;;;;;;;32.78;53.12;100707.69;5046005;28;65357;-41
2023/03/19 12:10:12;;;;;;;;;;;;;;;32.77;53.19;100714.22;5047771;27;70048;-44
2023/03/19 12:13:11;;;;;;;;;;;;;;;32.69;53.64;100717.28;5055942;28;66744;-43
2023/03/19 12:15:48;;;;;;;;;;;;;;;32.68;53.88;100712.91;5047303;27;70431;-40
2023/03/19 12:18:37;;;;;;;;;;;;;;;32.69;53.82;100709.97;5054235;28;66602;-39
2023/03/19 12:21:10;;;;;;;;;;;;;;;32.67;54.06;100716.69;5051547;27;69451;-43
2023/03/19 12:23:40;;;;;;;;;;;;;;;32.59;53.82;100733.34;5045263;28;65855;-40
2023/03/19 12:26:10;;;;;;;;;;;;;;;32.56;54.19;100741.94;5046493;27;69601;-40
2023/03/19 12:28:48;;;;;;;;;;;;;;;32.53;54.23;100747.84;5045120;27;66073;-38
2023/03/19 12:31:28;;;;;;;;;;;;;;;32.53;54.58;100748.69;5056523;28;69612;-38
2023/03/19 12:33:58;;;;;;;;;;;;;;;32.55;54.65;100752.00;5054915;28;65920;-40
2023/03/19 12:36:32;;;;;;;;;;;;;;;32.52;54.69;100757.06;5059537;27;70619;-41
2023/03/19 12:39:10;;;;;;;;;;;;;;;32.41;54.93;100762.22;5052327;28;65842;-43
2023/03/19 12:41:42;;;;;;;;;;;;;;;32.38;55.04;100773.53;5041467;27;70137;-42
2023/03/19 12:44:17;;;;;;;;;;;;;;;32.32;55.40;100785.34;5049981;27;65766;-42
2023/03/19 12:46:56;;;;;;;;;;;;;;;32.30;55.53;100784.72;5049885;28;70399;-42
2023/03/19 12:49:35;;;;;;;;;;;;;;;32.25;55.57;100790.84;5048465;27;65382;-44
2023/03/19 12:52:20;;;;;;;;;;;;;;;32.22;55.48;100796.75;5051323;28;69731;-44
2023/03/19 12:54:55;;;;;;;;;;;;;;;32.26;55.79;100799.81;5044727;28;65436;-42
2023/03/19 12:57:29;;;;;;;;;;;;;;;32.23;55.76;100803.00;5056921;28;70437;-41
2023/03/19 13:00:03;;;;;;;;;;;;;;;32.19;56.59;100801.81;5045666;28;66665;-42
2023/03/19 13:02:43;;;;;;;;;;;;;;;32.25;57.21;100800.88;5046944;28;69734;-45
2023/03/19 13:05:13;;;;;;;;;;;;;;;32.34;57.58;100809.53;5052809;28;66918;-45
2023/03/19 13:07:44;;;;;;;;;;;;;;;32.39;57.62;100807.75;5045719;28;70276;-41